createdAt,value
2018-12-17T00:00:30.896Z,26.37
2018-12-17T00:02:58.543Z,25.43
2018-12-17T00:05:26.096Z,24.93
2018-12-17T00:07:53.695Z,27.33
2018-12-17T00:10:21.355Z,27.10
2018-12-17T00:12:48.971Z,27.03
2018-12-17T00:15:16.569Z,25.40
2018-12-17T00:17:44.200Z,27.13
2018-12-17T00:20:11.798Z,26.83
2018-12-17T00:22:39.416Z,27.00
2018-12-17T00:25:07.078Z,25.90
2018-12-17T00:27:34.706Z,24.47
2018-12-17T00:30:02.357Z,26.37
2018-12-17T00:32:30.019Z,26.90
2018-12-17T00:34:57.590Z,26.30
2018-12-17T00:37:25.188Z,27.60
2018-12-17T00:39:52.751Z,26.30
2018-12-17T00:42:20.728Z,26.23
2018-12-17T00:44:48.649Z,26.17
2018-12-17T00:47:16.237Z,27.97
2018-12-17T00:49:43.786Z,25.17
2018-12-17T00:52:11.383Z,26.40
2018-12-17T00:54:38.972Z,24.93
2018-12-17T00:57:06.706Z,27.33
2018-12-17T00:59:34.269Z,26.20
2018-12-17T01:02:01.885Z,25.33
2018-12-17T01:04:29.487Z,27.10
2018-12-17T01:06:57.090Z,27.73
2018-12-17T01:09:24.704Z,26.53
2018-12-17T01:11:52.622Z,27.53
2018-12-17T01:14:20.208Z,27.77
2018-12-17T01:16:47.780Z,27.87
2018-12-17T01:19:15.373Z,26.70
2018-12-17T01:21:43.445Z,27.97
2018-12-17T01:24:11.017Z,25.97
2018-12-17T01:26:39.067Z,26.37
2018-12-17T01:29:06.643Z,25.97
2018-12-17T01:31:34.542Z,26.03
2018-12-17T01:34:02.122Z,25.87
2018-12-17T01:36:29.760Z,27.27
2018-12-17T01:38:57.342Z,25.27
2018-12-17T01:41:25.224Z,26.80
2018-12-17T01:43:52.811Z,28.37
2018-12-17T01:46:20.440Z,26.50
2018-12-17T01:48:48.023Z,25.83
2018-12-17T01:51:15.684Z,27.13
2018-12-17T01:53:43.251Z,26.37
2018-12-17T01:56:10.901Z,26.07
2018-12-17T01:58:38.494Z,27.30
2018-12-17T02:01:06.066Z,27.50
2018-12-17T02:03:33.663Z,26.40
2018-12-17T02:06:01.219Z,26.37
2018-12-17T02:08:29.070Z,26.70
2018-12-17T02:10:56.626Z,25.97
2018-12-17T02:13:24.514Z,26.13
2018-12-17T02:15:52.046Z,27.20
2018-12-17T02:18:19.646Z,27.90
2018-12-17T02:20:47.232Z,27.97
2018-12-17T02:23:14.805Z,28.80
2018-12-17T02:25:42.416Z,27.60
2018-12-17T02:28:10.015Z,26.50
2018-12-17T02:30:37.657Z,27.07
2018-12-17T02:33:05.327Z,26.20
2018-12-17T02:35:32.901Z,28.30
2018-12-17T02:38:00.474Z,26.20
2018-12-17T02:40:28.174Z,27.60
2018-12-17T02:42:55.853Z,27.80
2018-12-17T02:45:23.440Z,27.20
2018-12-17T02:47:51.005Z,28.13
2018-12-17T02:50:18.564Z,27.47
2018-12-17T02:52:46.121Z,28.20
2018-12-17T02:55:13.686Z,27.73
2018-12-17T02:57:41.349Z,26.60
2018-12-17T03:00:09.068Z,26.70
2018-12-17T03:02:36.644Z,26.53
2018-12-17T03:05:06.095Z,27.97
2018-12-17T03:07:33.652Z,28.43
2018-12-17T03:10:01.216Z,27.60
2018-12-17T03:12:28.811Z,27.40
2018-12-17T03:14:56.801Z,27.00
2018-12-17T03:17:24.675Z,28.20
2018-12-17T03:19:52.238Z,27.60
2018-12-17T03:22:20.122Z,27.10
2018-12-17T03:24:47.746Z,26.47
2018-12-17T03:27:15.350Z,27.53
2018-12-17T03:29:42.954Z,26.30
2018-12-17T03:32:10.525Z,28.60
2018-12-17T03:34:38.132Z,27.73
2018-12-17T03:37:05.981Z,27.53
2018-12-17T03:39:33.555Z,26.27
2018-12-17T03:42:01.207Z,28.60
2018-12-17T03:44:28.813Z,26.50
2018-12-17T03:46:56.401Z,28.23
2018-12-17T03:49:23.999Z,27.07
2018-12-17T03:51:51.659Z,26.93
2018-12-17T03:54:19.221Z,25.97
2018-12-17T03:56:46.838Z,27.10
2018-12-17T03:59:14.766Z,27.00
2018-12-17T04:01:42.359Z,26.97
2018-12-17T04:04:09.902Z,25.97
2018-12-17T04:06:37.508Z,27.20
2018-12-17T04:09:06.521Z,28.30
2018-12-17T04:11:34.055Z,25.83
2018-12-17T04:14:02.062Z,27.13
2018-12-17T04:16:29.627Z,28.17
2018-12-17T04:18:57.210Z,28.13
2018-12-17T04:21:24.751Z,25.80
2018-12-17T04:23:52.392Z,26.60
2018-12-17T04:26:19.969Z,29.10
2018-12-17T04:28:47.967Z,26.27
2018-12-17T04:31:15.503Z,26.97
2018-12-17T04:33:43.087Z,26.60
2018-12-17T04:36:10.705Z,26.63
2018-12-17T04:38:38.275Z,27.60
2018-12-17T04:41:05.844Z,26.03
2018-12-17T04:43:33.397Z,26.30
2018-12-17T04:46:01.083Z,27.00
2018-12-17T04:48:28.934Z,27.57
2018-12-17T04:50:56.562Z,27.47
2018-12-17T04:53:24.148Z,27.13
2018-12-17T04:55:51.750Z,25.70
2018-12-17T04:58:19.589Z,27.40
2018-12-17T05:00:47.167Z,27.40
2018-12-17T05:03:14.805Z,30.07
2018-12-17T05:05:42.383Z,28.97
2018-12-17T05:08:09.978Z,27.93
2018-12-17T05:10:37.574Z,27.60
2018-12-17T05:13:05.136Z,28.10
2018-12-17T05:15:32.783Z,27.57
2018-12-17T05:18:00.533Z,28.10
2018-12-17T05:20:28.171Z,27.80
2018-12-17T05:22:55.745Z,28.10
2018-12-17T05:25:23.344Z,28.20
2018-12-17T05:27:50.910Z,29.17
2018-12-17T05:30:18.516Z,27.80
2018-12-17T05:32:46.099Z,27.40
2018-12-17T05:35:13.796Z,25.47
2018-12-17T05:37:41.405Z,27.73
2018-12-17T05:40:09.113Z,27.17
2018-12-17T05:42:37.292Z,27.50
2018-12-17T05:45:05.593Z,27.80
2018-12-17T05:47:33.150Z,27.73
2018-12-17T05:50:00.765Z,29.87
2018-12-17T05:52:28.367Z,30.03
2018-12-17T05:54:55.957Z,27.10
2018-12-17T05:57:23.537Z,26.70
2018-12-17T05:59:51.115Z,27.73
2018-12-17T06:02:18.720Z,27.50
2018-12-17T06:04:46.319Z,26.57
2018-12-17T06:07:13.924Z,26.93
2018-12-17T06:09:41.626Z,27.30
2018-12-17T06:12:09.254Z,28.33
2018-12-17T06:14:36.864Z,28.10
2018-12-17T06:17:04.484Z,26.57
2018-12-17T06:19:32.365Z,26.87
2018-12-17T06:21:59.986Z,27.83
2018-12-17T06:24:27.662Z,26.70
2018-12-17T06:26:55.307Z,26.90
2018-12-17T06:29:22.907Z,28.30
2018-12-17T06:31:50.530Z,28.67
2018-12-17T06:34:18.236Z,28.93
2018-12-17T06:36:45.872Z,29.10
2018-12-17T06:39:14.829Z,26.90
2018-12-17T06:41:42.585Z,27.90
2018-12-17T06:44:10.208Z,27.33
2018-12-17T06:46:37.866Z,28.30
2018-12-17T06:49:05.455Z,27.87
2018-12-17T06:51:33.351Z,26.33
2018-12-17T06:54:01.302Z,27.00
2018-12-17T06:56:28.915Z,27.17
2018-12-17T06:58:56.537Z,27.67
2018-12-17T07:01:24.114Z,27.23
2018-12-17T07:03:51.708Z,28.13
2018-12-17T07:06:19.243Z,26.87
2018-12-17T07:08:46.859Z,28.93
2018-12-17T07:11:14.538Z,26.00
2018-12-17T07:13:42.115Z,28.20
2018-12-17T07:16:09.829Z,27.00
2018-12-17T07:18:37.732Z,27.37
2018-12-17T07:21:05.271Z,27.40
2018-12-17T07:23:32.867Z,25.77
2018-12-17T07:26:00.440Z,27.70
2018-12-17T07:28:28.043Z,27.43
2018-12-17T07:30:55.673Z,28.70
2018-12-17T07:33:23.319Z,28.27
2018-12-17T07:35:50.950Z,28.10
2018-12-17T07:38:18.611Z,26.90
2018-12-17T07:40:46.249Z,27.67
2018-12-17T07:43:13.808Z,27.90
2018-12-17T07:45:41.398Z,27.90
2018-12-17T07:48:08.964Z,27.17
2018-12-17T07:50:36.514Z,28.23
2018-12-17T07:53:04.143Z,26.00
2018-12-17T07:55:31.681Z,25.37
2018-12-17T07:57:59.269Z,27.27
2018-12-17T08:00:26.850Z,26.17
2018-12-17T08:02:54.416Z,26.03
2018-12-17T08:05:22.025Z,26.13
2018-12-17T08:07:49.563Z,27.00
2018-12-17T08:10:17.512Z,25.53
2018-12-17T08:12:45.074Z,26.20
2018-12-17T08:15:12.679Z,26.57
2018-12-17T08:17:40.260Z,26.27
2018-12-17T08:20:07.946Z,26.47
2018-12-17T08:22:35.661Z,25.50
2018-12-17T08:25:03.610Z,26.07
2018-12-17T08:27:31.204Z,27.70
2018-12-17T08:30:03.933Z,27.17
2018-12-17T08:32:28.740Z,28.43
2018-12-17T08:34:56.399Z,26.37
2018-12-17T08:37:24.068Z,23.30
2018-12-17T08:39:51.675Z,27.53
2018-12-17T08:42:19.236Z,26.37
2018-12-17T08:44:46.817Z,26.23
2018-12-17T08:47:14.403Z,26.73
2018-12-17T08:49:41.986Z,26.80
2018-12-17T08:52:09.611Z,26.50
2018-12-17T08:54:37.151Z,24.90
2018-12-17T08:57:04.952Z,26.30
2018-12-17T08:59:32.747Z,26.07
2018-12-17T09:02:00.290Z,26.10
2018-12-17T09:04:27.936Z,26.10
2018-12-17T09:06:55.494Z,28.43
2018-12-17T09:09:23.094Z,26.90
2018-12-17T09:11:50.660Z,26.73
2018-12-17T09:14:18.511Z,27.13
2018-12-17T09:16:46.170Z,27.20
2018-12-17T09:19:13.764Z,25.50
2018-12-17T09:21:41.669Z,25.80
2018-12-17T09:24:09.401Z,26.60
2018-12-17T09:26:36.981Z,26.77
2018-12-17T09:29:04.638Z,27.53
2018-12-17T09:31:32.241Z,27.63
2018-12-17T09:33:59.850Z,26.00
2018-12-17T09:36:27.427Z,28.17
2018-12-17T09:38:54.980Z,27.43
2018-12-17T09:41:22.609Z,27.77
2018-12-17T09:43:50.195Z,26.00
2018-12-17T09:46:17.868Z,27.83
2018-12-17T09:48:45.587Z,25.10
2018-12-17T09:51:19.356Z,27.03
2018-12-17T09:53:43.263Z,26.60
2018-12-17T09:56:10.844Z,27.07
2018-12-17T09:58:38.438Z,28.07
2018-12-17T10:01:06.228Z,27.60
2018-12-17T10:03:33.910Z,29.63
2018-12-17T10:06:01.490Z,28.73
2018-12-17T10:08:29.110Z,28.33
2018-12-17T10:10:56.692Z,27.37
2018-12-17T10:13:24.708Z,30.17
2018-12-17T10:15:52.297Z,30.77
2018-12-17T10:18:19.909Z,29.07
2018-12-17T10:20:47.550Z,29.70
2018-12-17T10:23:15.126Z,30.47
2018-12-17T10:25:42.769Z,29.30
2018-12-17T10:28:10.330Z,31.07
2018-12-17T10:30:37.978Z,29.20
2018-12-17T10:33:05.671Z,30.13
2018-12-17T10:35:33.310Z,28.93
2018-12-17T10:38:00.891Z,31.33
2018-12-17T10:40:28.765Z,29.80
2018-12-17T10:42:56.356Z,28.80
2018-12-17T10:45:24.069Z,29.37
2018-12-17T10:47:51.688Z,27.90
2018-12-17T10:50:19.281Z,29.67
2018-12-17T10:52:46.875Z,29.23
2018-12-17T10:55:14.428Z,27.90
2018-12-17T10:57:42.123Z,29.53
2018-12-17T11:00:13.219Z,29.30
2018-12-17T11:02:40.844Z,29.17
2018-12-17T11:05:10.473Z,30.30
2018-12-17T11:07:38.036Z,29.37
2018-12-17T11:10:06.589Z,28.10
2018-12-17T11:12:34.142Z,29.27
2018-12-17T11:15:01.803Z,29.90
2018-12-17T11:17:29.400Z,29.00
2018-12-17T11:19:57.008Z,29.27
2018-12-17T11:22:24.664Z,29.00
2018-12-17T11:24:52.256Z,28.37
2018-12-17T11:27:19.932Z,30.00
2018-12-17T11:29:47.510Z,29.70
2018-12-17T11:32:15.989Z,28.67
2018-12-17T11:34:43.597Z,30.33
2018-12-17T11:37:11.205Z,29.57
2018-12-17T11:39:38.771Z,27.70
2018-12-17T11:42:06.409Z,33.40
2018-12-17T11:44:34.016Z,29.20
2018-12-17T11:47:01.629Z,29.90
2018-12-17T11:49:29.245Z,29.90
2018-12-17T11:51:56.801Z,31.10
2018-12-17T11:54:24.416Z,28.63
2018-12-17T11:59:58.693Z,28.73
2018-12-17T12:02:26.647Z,28.83
2018-12-17T12:04:54.302Z,30.43
2018-12-17T12:07:21.872Z,29.33
2018-12-17T12:09:49.461Z,30.97
2018-12-17T12:12:17.121Z,32.00
2018-12-17T12:14:44.717Z,29.43
2018-12-17T12:17:12.279Z,29.57
2018-12-17T12:19:39.827Z,30.33
2018-12-17T12:22:07.798Z,28.10
2018-12-17T12:24:35.648Z,29.77
2018-12-17T12:27:03.269Z,29.70
2018-12-17T12:29:30.860Z,29.07
2018-12-17T12:31:58.477Z,30.40
2018-12-17T12:34:26.258Z,27.37
2018-12-17T12:36:53.887Z,29.67
2018-12-17T12:39:21.457Z,26.97
2018-12-17T12:41:49.053Z,28.77
2018-12-17T12:44:16.621Z,28.47
2018-12-17T12:46:44.188Z,28.90
2018-12-17T12:49:11.772Z,28.83
2018-12-17T12:51:39.344Z,28.03
2018-12-17T12:54:06.965Z,29.27
2018-12-17T12:56:34.510Z,30.33
2018-12-17T12:59:02.066Z,29.07
2018-12-17T13:01:29.695Z,29.53
2018-12-17T13:03:57.346Z,30.13
2018-12-17T13:06:24.891Z,31.80
2018-12-17T13:08:52.542Z,30.80
2018-12-17T13:11:20.129Z,31.37
2018-12-17T13:13:47.740Z,29.87
2018-12-17T13:16:15.332Z,29.67
2018-12-17T13:18:43.043Z,29.80
2018-12-17T13:21:10.658Z,34.90
2018-12-17T13:23:38.660Z,30.17
2018-12-17T13:26:06.534Z,30.37
2018-12-17T13:28:34.259Z,30.60
2018-12-17T13:31:01.875Z,30.87
2018-12-17T13:33:29.500Z,30.57
2018-12-17T13:35:57.087Z,33.53
2018-12-17T13:38:25.044Z,31.97
2018-12-17T13:40:52.611Z,31.20
2018-12-17T13:43:20.951Z,31.07
2018-12-17T13:45:48.526Z,30.53
2018-12-17T13:48:16.210Z,30.50
2018-12-17T13:50:43.831Z,30.53
2018-12-17T13:53:17.361Z,32.00
2018-12-17T13:55:45.042Z,32.13
2018-12-17T13:58:12.685Z,31.10
2018-12-17T14:00:40.493Z,31.13
2018-12-17T14:03:08.425Z,33.20
2018-12-17T14:05:36.071Z,31.80
2018-12-17T14:08:03.625Z,31.53
2018-12-17T14:10:51.051Z,30.00
2018-12-17T14:13:18.813Z,30.10
2018-12-17T14:15:51.963Z,31.00
2018-12-17T14:18:25.891Z,30.67
2018-12-17T14:23:56.273Z,30.30
2018-12-17T14:26:23.892Z,28.97
2018-12-17T14:28:51.534Z,29.77
2018-12-17T14:31:19.259Z,31.83
2018-12-17T14:33:49.590Z,29.77
2018-12-17T14:36:17.444Z,30.50
2018-12-17T14:38:45.014Z,27.70
2018-12-17T14:41:12.672Z,30.10
2018-12-17T14:43:40.269Z,30.80
2018-12-17T14:46:08.040Z,29.50
2018-12-17T14:48:35.890Z,29.57
2018-12-17T14:51:03.533Z,29.20
2018-12-17T14:53:31.106Z,29.27
2018-12-17T14:55:58.804Z,27.43
2018-12-17T14:58:26.361Z,29.27
2018-12-17T15:00:53.978Z,28.50
2018-12-17T15:03:21.571Z,28.87
2018-12-17T15:05:49.238Z,28.83
2018-12-17T15:08:16.846Z,27.37
2018-12-17T15:10:44.515Z,25.23
2018-12-17T15:13:12.213Z,25.40
2018-12-17T15:15:39.779Z,25.77
2018-12-17T15:18:07.523Z,25.37
2018-12-17T15:20:35.154Z,25.10
2018-12-17T15:23:02.748Z,25.90
2018-12-17T15:25:30.551Z,25.43
2018-12-17T15:27:58.207Z,24.60
2018-12-17T15:30:25.988Z,25.07
2018-12-17T15:32:53.739Z,25.63
2018-12-17T15:35:21.562Z,24.50
2018-12-17T15:37:49.193Z,26.77
2018-12-17T15:40:16.752Z,26.30
2018-12-17T15:42:44.366Z,26.40
2018-12-17T15:45:12.260Z,26.10
2018-12-17T15:47:39.854Z,26.43
2018-12-17T15:50:08.141Z,27.60
2018-12-17T15:52:35.793Z,26.50
2018-12-17T15:55:04.074Z,26.47
2018-12-17T15:57:31.623Z,28.30
2018-12-17T15:59:59.230Z,27.50
2018-12-17T16:02:26.828Z,25.00
2018-12-17T16:04:54.432Z,28.37
2018-12-17T16:07:22.840Z,25.80
2018-12-17T16:09:52.566Z,24.90
2018-12-17T16:12:20.354Z,26.40
2018-12-17T16:14:47.929Z,25.97
2018-12-17T16:17:15.607Z,27.60
2018-12-17T16:19:43.226Z,25.60
2018-12-17T16:22:10.799Z,27.37
2018-12-17T16:24:38.495Z,26.17
2018-12-17T16:27:06.210Z,25.57
2018-12-17T16:29:33.855Z,26.43
2018-12-17T16:32:01.628Z,25.13
2018-12-17T16:34:29.307Z,26.23
2018-12-17T16:36:57.101Z,27.07
2018-12-17T16:39:24.891Z,26.37
2018-12-17T16:41:52.548Z,25.73
2018-12-17T16:44:20.155Z,25.27
2018-12-17T16:46:47.769Z,25.33
2018-12-17T16:49:15.384Z,26.23
2018-12-17T16:51:42.952Z,25.97
2018-12-17T16:54:10.597Z,26.63
2018-12-17T16:56:39.112Z,26.37
2018-12-17T16:59:07.656Z,25.90
2018-12-17T17:01:35.306Z,23.03
2018-12-17T17:04:02.899Z,24.53
2018-12-17T17:06:30.584Z,25.93
2018-12-17T17:08:58.961Z,23.80
2018-12-17T17:11:26.721Z,25.40
2018-12-17T17:13:54.310Z,23.87
2018-12-17T17:16:21.944Z,24.50
2018-12-17T17:18:49.633Z,24.93
2018-12-17T17:21:18.477Z,25.37
2018-12-17T17:23:46.190Z,24.70
2018-12-17T17:26:13.799Z,25.53
2018-12-17T17:28:41.397Z,25.63
2018-12-17T17:31:09.451Z,24.60
2018-12-17T17:33:37.017Z,25.90
2018-12-17T17:36:04.647Z,27.67
2018-12-17T17:38:32.336Z,24.93
2018-12-17T17:41:00.028Z,26.23
2018-12-17T17:43:27.652Z,26.20
2018-12-17T17:45:55.246Z,27.80
2018-12-17T17:48:22.822Z,27.27
2018-12-17T17:53:24.375Z,26.70
2018-12-17T17:55:52.326Z,27.83
2018-12-17T17:58:19.898Z,28.40
2018-12-17T18:00:47.606Z,27.63
2018-12-17T18:03:15.202Z,28.60
2018-12-17T18:05:42.776Z,27.40
2018-12-17T18:08:10.372Z,27.30
2018-12-17T18:10:38.220Z,26.03
2018-12-17T18:13:06.274Z,26.47
2018-12-17T18:15:33.822Z,28.23
2018-12-17T18:18:01.933Z,26.80
2018-12-17T18:20:29.589Z,27.13
2018-12-17T18:22:57.279Z,25.43
2018-12-17T18:25:25.012Z,26.97
2018-12-17T18:27:52.599Z,27.27
2018-12-17T18:30:20.239Z,28.70
2018-12-17T18:32:47.879Z,28.80
2018-12-17T18:35:15.508Z,26.20
2018-12-17T18:37:43.464Z,27.97
2018-12-17T18:40:11.049Z,27.63
2018-12-17T18:42:38.751Z,26.60
2018-12-17T18:45:08.356Z,26.50
2018-12-17T18:47:35.973Z,27.60
2018-12-17T18:50:04.352Z,28.23
2018-12-17T18:52:31.979Z,27.33
2018-12-17T18:54:59.660Z,28.90
2018-12-17T18:57:27.289Z,28.60
2018-12-17T18:59:54.849Z,27.53
2018-12-17T19:02:22.517Z,29.47
2018-12-17T19:04:50.152Z,27.57
2018-12-17T19:07:17.771Z,26.27
2018-12-17T19:09:45.386Z,27.73
2018-12-17T19:12:12.974Z,27.33
2018-12-17T19:14:41.034Z,27.17
2018-12-17T19:17:08.647Z,30.13
2018-12-17T19:19:36.309Z,28.23
2018-12-17T19:22:04.022Z,28.10
2018-12-17T19:24:31.615Z,26.70
2018-12-17T19:26:59.253Z,27.83
2018-12-17T19:29:26.879Z,27.10
2018-12-17T19:31:55.083Z,27.87
2018-12-17T19:34:22.717Z,28.70
2018-12-17T19:36:50.325Z,29.17
2018-12-17T19:39:17.913Z,28.10
2018-12-17T19:41:45.627Z,28.20
2018-12-17T19:44:13.458Z,26.53
2018-12-17T19:46:41.057Z,29.43
2018-12-17T19:49:09.042Z,27.63
2018-12-17T19:51:36.623Z,28.40
2018-12-17T19:54:04.235Z,29.17
2018-12-17T19:56:31.895Z,27.83
2018-12-17T19:58:59.549Z,26.83
2018-12-17T20:01:27.126Z,27.53
2018-12-17T20:03:54.729Z,27.57
2018-12-17T20:06:22.368Z,26.83
2018-12-17T20:08:50.047Z,27.50
2018-12-17T20:11:17.724Z,28.43
2018-12-17T20:13:45.349Z,27.87
2018-12-17T20:16:12.966Z,27.37
2018-12-17T20:18:40.588Z,26.20
2018-12-17T20:21:08.216Z,28.80
2018-12-17T20:23:36.224Z,28.20
2018-12-17T20:26:04.269Z,33.80
2018-12-17T20:28:32.661Z,27.93
2018-12-17T20:31:00.444Z,29.23
2018-12-17T20:33:28.056Z,26.60
2018-12-17T20:35:55.822Z,32.00
2018-12-17T20:38:23.744Z,29.10
2018-12-17T20:40:54.490Z,26.80
2018-12-17T20:43:22.210Z,28.70
2018-12-17T20:45:50.059Z,26.53
2018-12-17T20:48:17.678Z,28.87
2018-12-17T20:50:45.289Z,28.27
2018-12-17T20:53:13.167Z,28.07
2018-12-17T20:55:40.865Z,27.40
2018-12-17T20:58:08.443Z,27.43
2018-12-17T21:00:36.105Z,28.20
2018-12-17T21:03:03.842Z,27.53
2018-12-17T21:05:31.441Z,26.23
2018-12-17T21:07:59.200Z,25.23
2018-12-17T21:10:26.870Z,26.57
2018-12-17T21:12:54.818Z,27.70
2018-12-17T21:15:22.448Z,26.50
2018-12-17T21:17:50.021Z,26.63
2018-12-17T21:20:17.617Z,27.33
2018-12-17T21:22:45.229Z,25.27
2018-12-17T21:25:12.878Z,26.87
2018-12-17T21:27:40.425Z,28.60
2018-12-17T21:30:09.135Z,29.43
2018-12-17T21:32:36.885Z,26.70
2018-12-17T21:35:05.621Z,26.43
2018-12-17T21:37:33.267Z,25.60
2018-12-17T21:40:01.256Z,24.30
2018-12-17T21:42:29.137Z,24.20
2018-12-17T21:44:56.691Z,26.07
2018-12-17T21:47:24.346Z,27.40
2018-12-17T21:49:51.901Z,23.20
2018-12-17T21:52:19.511Z,24.63
2018-12-17T21:54:47.646Z,25.43
2018-12-17T21:57:15.614Z,25.77
2018-12-17T21:59:43.315Z,24.83
2018-12-17T22:02:11.817Z,25.13
2018-12-17T22:04:39.437Z,24.50
2018-12-17T22:07:07.022Z,29.67
2018-12-17T22:09:34.661Z,26.07
2018-12-17T22:12:02.253Z,27.97
2018-12-17T22:14:29.885Z,32.70
2018-12-17T22:16:59.594Z,27.63
2018-12-17T22:19:27.515Z,25.60
2018-12-17T22:21:55.086Z,24.93
2018-12-17T22:24:22.972Z,24.00
2018-12-17T22:26:50.843Z,25.07
2018-12-17T22:29:18.797Z,25.63
2018-12-17T22:31:46.526Z,26.80
2018-12-17T22:34:14.164Z,23.20
2018-12-17T22:36:41.712Z,24.63
2018-12-17T22:39:09.320Z,23.47
2018-12-17T22:41:37.229Z,25.40
2018-12-17T22:44:04.799Z,26.13
2018-12-17T22:46:32.389Z,26.20
2018-12-17T22:48:59.973Z,23.60
2018-12-17T22:51:27.545Z,24.77
2018-12-17T22:53:55.142Z,24.40
2018-12-17T22:56:22.684Z,25.37
2018-12-17T22:58:53.350Z,24.60
2018-12-17T23:01:39.065Z,24.07
2018-12-17T23:04:07.498Z,24.00
2018-12-17T23:06:35.099Z,23.83
2018-12-17T23:09:06.425Z,24.10
2018-12-17T23:11:51.733Z,24.83
2018-12-17T23:14:31.130Z,23.33
2018-12-17T23:17:10.865Z,24.20
2018-12-17T23:19:42.631Z,23.87
2018-12-17T23:22:11.065Z,23.63
2018-12-17T23:24:38.822Z,23.17
2018-12-17T23:27:06.837Z,23.63
2018-12-17T23:29:34.806Z,24.40
2018-12-17T23:32:02.417Z,23.40
2018-12-17T23:34:30.331Z,31.07
2018-12-17T23:36:57.952Z,30.50
2018-12-17T23:39:25.520Z,25.27
2018-12-17T23:41:53.114Z,23.83
2018-12-17T23:44:20.698Z,23.30
2018-12-17T23:46:48.661Z,23.60
2018-12-17T23:49:16.263Z,23.23
2018-12-17T23:51:43.855Z,23.13
2018-12-17T23:54:11.499Z,22.73
2018-12-17T23:56:39.148Z,23.97
2018-12-17T23:59:06.981Z,21.60
